Time;durP1;ratioP1;P1;durP2;ratioP2;P2;SDS_P1;SDS_P2;PMS_P1;PMS_P2;Temp;Humidity;BMP_temperature;BMP_pressure;BME280_temperature;BME280_humidity;BME280_pressure;Samples;Min_cycle;Max_cycle;Signal;HPM_P1;HPM_P2
2023/09/12 00:00:23;;;;;;;10.35;7.65;;;;;;;;;;4992222;28;20588;-72
2023/09/12 00:02:49;;;;;;;13.65;8.10;;;;;;;;;;4992486;28;20203;-71
2023/09/12 00:05:15;;;;;;;10.40;7.60;;;;;;;;;;4991742;28;20798;-71
2023/09/12 00:07:42;;;;;;;16.85;8.73;;;;;;;;;;4992196;28;20249;-71
2023/09/12 00:10:08;;;;;;;15.10;8.40;;;;;;;;;;4994180;28;20206;-71
2023/09/12 00:12:35;;;;;;;11.93;7.55;;;;;;;;;;4996262;28;20214;-71
2023/09/12 00:15:04;;;;;;;11.63;8.02;;;;;;;;;;4995930;28;20621;-71
2023/09/12 00:17:30;;;;;;;15.75;7.95;;;;;;;;;;4995904;28;20297;-71
2023/09/12 00:19:56;;;;;;;12.20;7.50;;;;;;;;;;4996253;28;20218;-71
2023/09/12 00:22:23;;;;;;;12.98;7.97;;;;;;;;;;4996171;28;20598;-71
2023/09/12 00:24:49;;;;;;;14.23;8.52;;;;;;;;;;4995796;28;20226;-71
2023/09/12 00:27:15;;;;;;;14.55;8.40;;;;;;;;;;4995685;28;20608;-71
2023/09/12 00:29:41;;;;;;;12.70;8.50;;;;;;;;;;4996135;28;20207;-71
2023/09/12 00:32:09;;;;;;;14.38;7.97;;;;;;;;;;4995828;28;20202;-71
2023/09/12 00:34:35;;;;;;;9.35;7.60;;;;;;;;;;4995634;28;20672;-71
2023/09/12 00:37:02;;;;;;;11.02;7.65;;;;;;;;;;4995380;28;20211;-71
2023/09/12 00:39:28;;;;;;;13.57;8.73;;;;;;;;;;4995482;28;20227;-71
2023/09/12 00:41:54;;;;;;;14.52;7.95;;;;;;;;;;4995603;28;20203;-71
2023/09/12 00:44:20;;;;;;;12.10;7.93;;;;;;;;;;4995624;28;20208;-71
2023/09/12 00:46:49;;;;;;;12.55;7.90;;;;;;;;;;4995464;28;20234;-71
2023/09/12 00:49:17;;;;;;;11.00;8.25;;;;;;;;;;4995487;28;20435;-71
2023/09/12 00:51:43;;;;;;;8.40;7.25;;;;;;;;;;4995323;28;20229;-71
2023/09/12 00:54:10;;;;;;;11.38;7.95;;;;;;;;;;4995589;28;20622;-71
2023/09/12 00:56:36;;;;;;;10.80;8.07;;;;;;;;;;4995379;28;20259;-71
2023/09/12 00:59:02;;;;;;;13.95;7.90;;;;;;;;;;4995225;28;20227;-71
2023/09/12 01:01:29;;;;;;;10.82;7.95;;;;;;;;;;4995207;28;20226;-71
2023/09/12 01:03:55;;;;;;;12.40;7.55;;;;;;;;;;4995412;28;20203;-71
2023/09/12 01:06:25;;;;;;;9.68;7.53;;;;;;;;;;4994612;28;20614;-71
2023/09/12 01:08:52;;;;;;;12.52;7.50;;;;;;;;;;4994881;28;20203;-71
2023/09/12 01:11:18;;;;;;;8.80;7.80;;;;;;;;;;4995133;28;20286;-71
2023/09/12 01:13:44;;;;;;;17.15;7.63;;;;;;;;;;4995130;28;20203;-71
2023/09/12 01:16:11;;;;;;;10.30;7.03;;;;;;;;;;4995380;28;20230;-71
2023/09/12 01:18:37;;;;;;;13.15;7.90;;;;;;;;;;4995025;28;20241;-71
2023/09/12 01:21:18;;;;;;;9.57;7.20;;;;;;;;;;4993306;28;20207;-71
2023/09/12 01:23:52;;;;;;;11.38;7.78;;;;;;;;;;4994915;28;20211;-71
2023/09/12 01:26:24;;;;;;;10.90;6.90;;;;;;;;;;4994502;28;20223;-71
2023/09/12 01:28:52;;;;;;;9.63;7.60;;;;;;;;;;4994833;28;20195;-71
2023/09/12 01:31:19;;;;;;;10.27;6.90;;;;;;;;;;4994598;28;20199;-71
2023/09/12 01:33:45;;;;;;;12.30;7.25;;;;;;;;;;4994569;28;20683;-71
2023/09/12 01:36:11;;;;;;;8.18;7.00;;;;;;;;;;4994474;28;20230;-71
2023/09/12 01:38:38;;;;;;;10.45;7.38;;;;;;;;;;4994570;28;20219;-71
2023/09/12 01:41:04;;;;;;;9.85;7.40;;;;;;;;;;4994504;28;20209;-71
2023/09/12 01:43:31;;;;;;;8.60;7.57;;;;;;;;;;4994593;28;20207;-71
2023/09/12 01:46:00;;;;;;;8.73;7.65;;;;;;;;;;4993942;28;20230;-71
2023/09/12 01:48:33;;;;;;;12.43;7.57;;;;;;;;;;4994567;28;20225;-71
2023/09/12 01:50:59;;;;;;;10.55;6.97;;;;;;;;;;4994349;28;20691;-71
2023/09/12 01:53:26;;;;;;;11.07;7.53;;;;;;;;;;4994364;28;20210;-71
2023/09/12 01:55:52;;;;;;;12.52;7.30;;;;;;;;;;4993931;28;20230;-71
2023/09/12 01:58:19;;;;;;;9.95;7.70;;;;;;;;;;4994231;28;20215;-71
2023/09/12 02:00:45;;;;;;;13.13;7.38;;;;;;;;;;4994071;28;20719;-71
2023/09/12 02:03:13;;;;;;;13.07;7.40;;;;;;;;;;4994408;28;20207;-71
2023/09/12 02:05:40;;;;;;;13.27;7.38;;;;;;;;;;4993971;28;20227;-71
2023/09/12 02:08:06;;;;;;;9.88;7.72;;;;;;;;;;4994087;28;20227;-71
2023/09/12 02:10:33;;;;;;;9.30;7.53;;;;;;;;;;4993950;28;20203;-71
2023/09/12 02:12:59;;;;;;;10.93;7.93;;;;;;;;;;4993786;28;20686;-71
2023/09/12 02:15:25;;;;;;;10.82;7.55;;;;;;;;;;4993673;28;20234;-71
2023/09/12 02:17:52;;;;;;;12.05;8.05;;;;;;;;;;4994045;28;20207;-71
2023/09/12 02:20:20;;;;;;;9.70;8.23;;;;;;;;;;4993606;28;20703;-71
2023/09/12 02:22:47;;;;;;;11.95;7.45;;;;;;;;;;4993841;28;20221;-71
2023/09/12 02:25:13;;;;;;;15.80;8.68;;;;;;;;;;4993327;28;20230;-71
2023/09/12 02:27:39;;;;;;;14.55;8.57;;;;;;;;;;4993531;28;20687;-71
2023/09/12 02:30:06;;;;;;;12.55;8.32;;;;;;;;;;4993860;28;20199;-71
2023/09/12 02:32:32;;;;;;;10.20;9.05;;;;;;;;;;4993396;28;20239;-71
2023/09/12 02:34:59;;;;;;;11.98;9.00;;;;;;;;;;4993465;28;20227;-71
2023/09/12 02:37:27;;;;;;;9.52;8.05;;;;;;;;;;4993086;28;20203;-71
2023/09/12 02:39:53;;;;;;;10.40;8.70;;;;;;;;;;4993703;28;20314;-71
2023/09/12 02:42:19;;;;;;;23.73;9.40;;;;;;;;;;4993432;28;20199;-71
2023/09/12 02:44:46;;;;;;;15.70;8.40;;;;;;;;;;4993497;28;20203;-71
2023/09/12 02:47:12;;;;;;;13.55;8.40;;;;;;;;;;4992986;28;20586;-71
2023/09/12 02:49:38;;;;;;;11.65;8.68;;;;;;;;;;4993288;28;20199;-71
2023/09/12 02:52:04;;;;;;;11.15;8.35;;;;;;;;;;4993205;28;20258;-71
2023/09/12 02:54:32;;;;;;;9.50;8.05;;;;;;;;;;4992997;28;20230;-71
2023/09/12 02:56:58;;;;;;;16.50;9.05;;;;;;;;;;4992699;28;20203;-72
2023/09/12 02:59:24;;;;;;;16.13;9.30;;;;;;;;;;4993252;28;20223;-71
2023/09/12 03:01:51;;;;;;;13.25;8.63;;;;;;;;;;4993224;28;20210;-71
2023/09/12 03:04:17;;;;;;;17.27;8.70;;;;;;;;;;4993328;28;20212;-71
2023/09/12 03:06:44;;;;;;;15.68;9.75;;;;;;;;;;4992552;28;20707;-71
2023/09/12 03:09:11;;;;;;;19.75;9.27;;;;;;;;;;4992928;28;20203;-71
2023/09/12 03:11:38;;;;;;;15.73;9.77;;;;;;;;;;4992661;28;20211;-71
2023/09/12 03:14:05;;;;;;;14.68;8.80;;;;;;;;;;4992849;28;20253;-71
2023/09/12 03:16:31;;;;;;;16.65;9.45;;;;;;;;;;4992556;28;20238;-71
2023/09/12 03:18:58;;;;;;;22.35;9.77;;;;;;;;;;4992632;28;20223;-71
2023/09/12 03:21:24;;;;;;;15.93;8.77;;;;;;;;;;4992672;28;20203;-71
2023/09/12 03:23:50;;;;;;;13.15;9.02;;;;;;;;;;4992474;28;20210;-71
2023/09/12 03:26:16;;;;;;;12.02;8.32;;;;;;;;;;4992402;28;20231;-71
2023/09/12 03:28:44;;;;;;;15.98;8.38;;;;;;;;;;4992776;28;20210;-71
2023/09/12 03:31:12;;;;;;;13.85;8.82;;;;;;;;;;4993555;28;20203;-71
2023/09/12 03:33:38;;;;;;;13.05;8.95;;;;;;;;;;4992898;28;20676;-71
2023/09/12 03:36:05;;;;;;;13.32;8.77;;;;;;;;;;4992121;28;20226;-71
2023/09/12 03:38:31;;;;;;;11.65;9.02;;;;;;;;;;4992259;28;20199;-71
2023/09/12 03:40:57;;;;;;;14.93;8.90;;;;;;;;;;4992577;28;20199;-71
2023/09/12 03:43:24;;;;;;;17.35;8.93;;;;;;;;;;4991968;28;20551;-71
2023/09/12 03:45:51;;;;;;;12.63;9.02;;;;;;;;;;4991643;28;20211;-71
2023/09/12 03:48:18;;;;;;;14.18;8.32;;;;;;;;;;4992318;28;20213;-71
2023/09/12 03:50:45;;;;;;;16.63;8.82;;;;;;;;;;4992223;28;20250;-71
2023/09/12 03:53:11;;;;;;;13.85;8.82;;;;;;;;;;4992173;28;20202;-71
2023/09/12 03:55:38;;;;;;;14.32;8.93;;;;;;;;;;4991798;28;20704;-71
2023/09/12 03:58:04;;;;;;;17.08;9.48;;;;;;;;;;4992361;28;20210;-71
2023/09/12 04:00:30;;;;;;;13.10;9.05;;;;;;;;;;4992064;28;20703;-71
2023/09/12 04:02:58;;;;;;;11.45;8.50;;;;;;;;;;4992267;28;20207;-71
2023/09/12 04:05:25;;;;;;;15.82;8.55;;;;;;;;;;4992050;28;20227;-71
2023/09/12 04:07:51;;;;;;;13.43;8.70;;;;;;;;;;4992178;28;20275;-71
2023/09/12 04:10:18;;;;;;;15.63;9.75;;;;;;;;;;4992330;28;20583;-71
2023/09/12 04:12:45;;;;;;;15.30;9.15;;;;;;;;;;4992164;28;20294;-72
2023/09/12 04:15:11;;;;;;;9.75;8.52;;;;;;;;;;4991951;28;20231;-71
2023/09/12 04:17:37;;;;;;;17.05;9.20;;;;;;;;;;4992151;28;20207;-71
2023/09/12 04:20:05;;;;;;;13.93;9.88;;;;;;;;;;4991883;28;20227;-71
2023/09/12 04:22:32;;;;;;;16.20;9.98;;;;;;;;;;4991904;28;20218;-71
2023/09/12 04:24:58;;;;;;;16.95;9.52;;;;;;;;;;4992059;28;20227;-71
2023/09/12 04:27:24;;;;;;;15.93;9.43;;;;;;;;;;4991774;28;20203;-71
2023/09/12 04:29:50;;;;;;;19.35;9.38;;;;;;;;;;4992039;28;20253;-71
2023/09/12 04:32:23;;;;;;;15.57;9.45;;;;;;;;;;4991976;28;20226;-71
2023/09/12 04:34:49;;;;;;;11.38;8.77;;;;;;;;;;4991503;28;20762;-71
2023/09/12 04:37:16;;;;;;;11.25;9.13;;;;;;;;;;4991842;28;20211;-71
2023/09/12 04:39:43;;;;;;;13.25;8.75;;;;;;;;;;4991670;28;20620;-70
2023/09/12 04:42:09;;;;;;;14.77;9.40;;;;;;;;;;4991709;28;20207;-70
2023/09/12 04:44:36;;;;;;;15.60;9.02;;;;;;;;;;4991765;28;20206;-70
2023/09/12 04:47:02;;;;;;;15.65;9.77;;;;;;;;;;4991574;28;20207;-70
2023/09/12 04:49:28;;;;;;;12.95;8.65;;;;;;;;;;4991821;28;20294;-70
2023/09/12 04:51:55;;;;;;;13.48;8.55;;;;;;;;;;4991871;28;20210;-70
2023/09/12 04:54:22;;;;;;;13.70;9.30;;;;;;;;;;4991873;28;20199;-70
2023/09/12 04:56:49;;;;;;;14.93;9.13;;;;;;;;;;4994236;28;20227;-70
2023/09/12 04:59:15;;;;;;;11.40;8.98;;;;;;;;;;4995272;28;20223;-70
2023/09/12 05:01:41;;;;;;;13.07;9.45;;;;;;;;;;4995130;28;20710;-70
2023/09/12 05:04:07;;;;;;;13.93;10.20;;;;;;;;;;4995128;28;20202;-70
2023/09/12 05:06:34;;;;;;;17.30;9.32;;;;;;;;;;4995023;28;20223;-70
2023/09/12 05:09:00;;;;;;;16.60;9.55;;;;;;;;;;4995085;28;20210;-70
2023/09/12 05:11:28;;;;;;;16.30;9.82;;;;;;;;;;4995043;28;20199;-70
2023/09/12 05:13:55;;;;;;;14.57;8.73;;;;;;;;;;4994980;28;20218;-70
2023/09/12 05:16:21;;;;;;;16.08;9.23;;;;;;;;;;4994663;28;20227;-70
2023/09/12 05:18:49;;;;;;;14.20;9.45;;;;;;;;;;4994703;28;20214;-70
2023/09/12 05:21:15;;;;;;;14.35;9.07;;;;;;;;;;4994988;28;20223;-70
2023/09/12 05:23:41;;;;;;;14.98;9.27;;;;;;;;;;4994760;28;20220;-70
2023/09/12 05:26:07;;;;;;;18.77;9.32;;;;;;;;;;4994253;28;20630;-70
2023/09/12 05:28:35;;;;;;;13.57;9.45;;;;;;;;;;4994648;28;20206;-70
2023/09/12 05:31:02;;;;;;;14.43;8.18;;;;;;;;;;4994612;28;20200;-70
2023/09/12 05:33:28;;;;;;;13.20;9.35;;;;;;;;;;4994507;28;20214;-70
2023/09/12 05:35:55;;;;;;;14.98;9.50;;;;;;;;;;4995032;28;20226;-70
2023/09/12 05:38:21;;;;;;;11.45;9.45;;;;;;;;;;4995062;28;20210;-70
2023/09/12 05:40:49;;;;;;;18.17;8.98;;;;;;;;;;4995333;28;20238;-70
2023/09/12 05:43:16;;;;;;;10.45;9.10;;;;;;;;;;4992749;28;20208;-70
2023/09/12 05:45:43;;;;;;;16.63;9.93;;;;;;;;;;4991398;28;20242;-70
2023/09/12 05:48:10;;;;;;;13.50;9.27;;;;;;;;;;4991700;28;20226;-70
2023/09/12 05:50:37;;;;;;;14.43;9.40;;;;;;;;;;4991740;28;20227;-71
2023/09/12 05:53:03;;;;;;;14.35;10.27;;;;;;;;;;4991909;28;20203;-71
2023/09/12 05:55:29;;;;;;;17.55;9.65;;;;;;;;;;4991312;28;20231;-71
2023/09/12 05:57:56;;;;;;;20.00;10.18;;;;;;;;;;4992396;28;20667;-71
2023/09/12 06:00:22;;;;;;;22.05;11.60;;;;;;;;;;4994135;28;20637;-71
2023/09/12 06:02:50;;;;;;;21.05;10.63;;;;;;;;;;4994243;28;20290;-71
2023/09/12 06:05:16;;;;;;;13.18;10.02;;;;;;;;;;4993837;28;20220;-71
2023/09/12 06:07:43;;;;;;;17.50;9.77;;;;;;;;;;4993390;28;20684;-70
2023/09/12 06:10:09;;;;;;;15.55;9.43;;;;;;;;;;4993884;28;20235;-70
2023/09/12 06:12:36;;;;;;;22.85;10.73;;;;;;;;;;4993823;28;20198;-70
2023/09/12 06:15:04;;;;;;;16.90;9.60;;;;;;;;;;4993727;28;20541;-70
2023/09/12 06:17:30;;;;;;;13.95;9.95;;;;;;;;;;4993745;28;20215;-70
2023/09/12 06:19:57;;;;;;;17.45;10.40;;;;;;;;;;4993996;28;20222;-70
2023/09/12 06:22:24;;;;;;;16.98;9.93;;;;;;;;;;4993618;28;20207;-70
2023/09/12 06:24:51;;;;;;;20.85;10.98;;;;;;;;;;4993395;28;20231;-71
2023/09/12 06:27:18;;;;;;;20.42;9.82;;;;;;;;;;4993223;28;20215;-71
2023/09/12 06:29:45;;;;;;;19.30;10.13;;;;;;;;;;4993620;28;20199;-71
2023/09/12 06:32:11;;;;;;;20.75;11.25;;;;;;;;;;4993729;28;20552;-71
2023/09/12 06:34:37;;;;;;;21.25;9.52;;;;;;;;;;4993580;28;20203;-71
2023/09/12 06:37:05;;;;;;;18.08;10.05;;;;;;;;;;4993316;28;20199;-71
2023/09/12 06:39:31;;;;;;;20.15;11.05;;;;;;;;;;4993332;28;20207;-71
2023/09/12 06:41:57;;;;;;;15.35;9.35;;;;;;;;;;4993384;28;20833;-71
2023/09/12 06:44:24;;;;;;;19.75;9.77;;;;;;;;;;4993566;28;20261;-71
2023/09/12 06:46:50;;;;;;;21.05;9.27;;;;;;;;;;4993032;28;20730;-71
2023/09/12 06:49:16;;;;;;;14.93;9.35;;;;;;;;;;4993724;28;20207;-71
2023/09/12 06:51:42;;;;;;;22.38;9.85;;;;;;;;;;4993649;28;20199;-71
2023/09/12 06:54:10;;;;;;;10.02;8.45;;;;;;;;;;4993172;28;20211;-71
2023/09/12 06:56:37;;;;;;;22.92;9.63;;;;;;;;;;4992799;28;20831;-71
2023/09/12 06:59:04;;;;;;;20.33;10.10;;;;;;;;;;4993265;28;20199;-71
2023/09/12 07:01:30;;;;;;;14.82;8.75;;;;;;;;;;4993177;28;20326;-71
2023/09/12 07:03:56;;;;;;;23.50;9.82;;;;;;;;;;4993031;28;20575;-71
2023/09/12 07:06:22;;;;;;;15.48;9.98;;;;;;;;;;4992756;28;20230;-71
2023/09/12 07:08:49;;;;;;;16.65;9.68;;;;;;;;;;4992891;28;20214;-71
2023/09/12 07:11:16;;;;;;;22.50;10.75;;;;;;;;;;5010863;28;20213;-71
2023/09/12 07:13:43;;;;;;;19.05;10.07;;;;;;;;;;5012742;28;20203;-67
2023/09/12 07:16:11;;;;;;;18.40;8.98;;;;;;;;;;4984434;28;20649;-67
2023/09/12 07:18:38;;;;;;;18.00;9.38;;;;;;;;;;4990053;28;20671;-69
2023/09/12 07:21:12;;;;;;;14.65;8.80;;;;;;;;;;4986262;28;20305;-77
2023/09/12 07:23:38;;;;;;;16.83;9.38;;;;;;;;;;4984344;28;20459;-70
2023/09/12 07:26:04;;;;;;;12.13;8.57;;;;;;;;;;4985008;28;20941;-68
2023/09/12 07:28:32;;;;;;;16.60;8.85;;;;;;;;;;4977560;28;20218;-68
2023/09/12 07:30:59;;;;;;;18.88;9.95;;;;;;;;;;4985150;28;20223;-73
2023/09/12 07:33:25;;;;;;;15.10;9.20;;;;;;;;;;4985146;28;20207;-71
2023/09/12 07:35:53;;;;;;;19.92;10.00;;;;;;;;;;4985570;28;20229;-68
2023/09/12 07:38:19;;;;;;;18.40;9.30;;;;;;;;;;4985619;28;20211;-68
2023/09/12 07:40:46;;;;;;;13.35;8.95;;;;;;;;;;4985182;28;20226;-68
2023/09/12 07:43:12;;;;;;;15.45;9.13;;;;;;;;;;4985522;28;20214;-68
2023/09/12 07:45:40;;;;;;;13.18;8.95;;;;;;;;;;4985910;28;20235;-68
2023/09/12 07:48:07;;;;;;;13.82;9.55;;;;;;;;;;4984970;28;20698;-69
2023/09/12 07:50:33;;;;;;;22.48;9.65;;;;;;;;;;4985176;28;20211;-68
2023/09/12 07:52:59;;;;;;;20.17;9.60;;;;;;;;;;4986093;28;20230;-71
2023/09/12 07:55:25;;;;;;;11.73;8.80;;;;;;;;;;4984656;28;20659;-69
2023/09/12 07:57:52;;;;;;;16.73;9.45;;;;;;;;;;4985297;28;20214;-72
2023/09/12 08:00:18;;;;;;;16.63;9.23;;;;;;;;;;4984877;28;20226;-69
2023/09/12 08:02:46;;;;;;;14.23;9.23;;;;;;;;;;4984908;28;20678;-70
2023/09/12 08:05:12;;;;;;;19.02;9.57;;;;;;;;;;4983903;28;20229;-69
2023/09/12 08:07:38;;;;;;;19.38;10.43;;;;;;;;;;4984688;28;20221;-67
2023/09/12 08:10:05;;;;;;;16.13;9.77;;;;;;;;;;4984807;28;20706;-68
2023/09/12 08:12:31;;;;;;;14.40;10.10;;;;;;;;;;4984838;28;20519;-70
2023/09/12 08:14:58;;;;;;;14.00;9.20;;;;;;;;;;4985181;28;20485;-68
2023/09/12 08:17:25;;;;;;;15.52;9.45;;;;;;;;;;4984907;28;20697;-68
2023/09/12 08:19:52;;;;;;;17.77;9.77;;;;;;;;;;4985047;28;20237;-71
2023/09/12 08:22:19;;;;;;;15.52;8.90;;;;;;;;;;4984384;28;20231;-67
2023/09/12 08:24:45;;;;;;;14.02;8.63;;;;;;;;;;4984117;28;20298;-72
2023/09/12 08:27:12;;;;;;;14.75;9.30;;;;;;;;;;4984791;28;20222;-69
2023/09/12 08:29:39;;;;;;;11.93;8.95;;;;;;;;;;4984641;28;20225;-70
2023/09/12 08:32:05;;;;;;;16.45;9.10;;;;;;;;;;4988029;28;20207;-68
2023/09/12 08:34:31;;;;;;;16.08;9.35;;;;;;;;;;4988154;28;20215;-69
2023/09/12 08:36:59;;;;;;;15.98;8.02;;;;;;;;;;4988518;28;20214;-70
2023/09/12 08:39:26;;;;;;;19.17;8.82;;;;;;;;;;4987956;28;20214;-69
2023/09/12 08:41:53;;;;;;;19.77;9.10;;;;;;;;;;4988906;28;20238;-69
2023/09/12 08:44:20;;;;;;;14.60;9.30;;;;;;;;;;4988479;28;20578;-69
2023/09/12 08:46:46;;;;;;;15.50;8.93;;;;;;;;;;4988245;28;20678;-69
2023/09/12 08:49:12;;;;;;;23.83;9.88;;;;;;;;;;4988297;28;20910;-72
2023/09/12 08:51:39;;;;;;;12.43;8.57;;;;;;;;;;4988396;28;20211;-75
2023/09/12 08:54:07;;;;;;;13.45;8.73;;;;;;;;;;4987394;28;20790;-73
2023/09/12 08:56:35;;;;;;;13.55;8.55;;;;;;;;;;4988419;28;20230;-68
2023/09/12 08:59:02;;;;;;;21.67;9.15;;;;;;;;;;4988575;28;20217;-69
2023/09/12 09:01:30;;;;;;;15.07;9.00;;;;;;;;;;4987757;28;20763;-72
2023/09/12 09:03:57;;;;;;;12.95;8.48;;;;;;;;;;4987709;28;20210;-74
2023/09/12 09:06:24;;;;;;;22.65;8.90;;;;;;;;;;4987265;28;20554;-70
2023/09/12 09:08:50;;;;;;;12.55;8.18;;;;;;;;;;4988137;28;20221;-71
2023/09/12 09:11:18;;;;;;;16.83;9.18;;;;;;;;;;4988291;28;20218;-71
2023/09/12 09:13:44;;;;;;;17.00;8.40;;;;;;;;;;4988230;28;20213;-73
2023/09/12 09:16:11;;;;;;;11.25;8.10;;;;;;;;;;4987335;28;20309;-74
2023/09/12 09:18:50;;;;;;;17.85;8.93;;;;;;;;;;4987643;28;20234;-67
2023/09/12 09:21:17;;;;;;;13.73;8.25;;;;;;;;;;4987896;28;20230;-68
2023/09/12 09:23:45;;;;;;;9.80;8.13;;;;;;;;;;4987524;28;20218;-67
2023/09/12 09:26:11;;;;;;;12.02;8.55;;;;;;;;;;4986872;28;20769;-70
2023/09/12 09:28:40;;;;;;;11.43;8.00;;;;;;;;;;4988003;28;20210;-71
2023/09/12 09:31:10;;;;;;;10.82;7.72;;;;;;;;;;4987984;28;20301;-72
2023/09/12 09:33:37;;;;;;;20.52;8.80;;;;;;;;;;4987323;28;20633;-68
2023/09/12 09:36:03;;;;;;;13.20;7.75;;;;;;;;;;4986617;28;20313;-68
2023/09/12 09:38:30;;;;;;;16.67;8.15;;;;;;;;;;4987673;28;20690;-68
2023/09/12 09:40:56;;;;;;;12.70;7.85;;;;;;;;;;4987491;28;20241;-68
2023/09/12 09:43:24;;;;;;;9.88;8.10;;;;;;;;;;4985873;28;20211;-65
2023/09/12 09:45:53;;;;;;;10.27;8.25;;;;;;;;;;4986602;28;20258;-69
2023/09/12 09:48:19;;;;;;;12.60;7.82;;;;;;;;;;4987023;28;20211;-68
2023/09/12 09:50:46;;;;;;;13.82;7.57;;;;;;;;;;4987679;28;20213;-68
2023/09/12 09:53:12;;;;;;;14.35;8.05;;;;;;;;;;4987299;28;20217;-68
2023/09/12 09:55:38;;;;;;;12.25;7.85;;;;;;;;;;4986728;28;20718;-68
2023/09/12 09:58:06;;;;;;;16.08;8.25;;;;;;;;;;4987095;28;20221;-74
2023/09/12 10:00:34;;;;;;;11.52;7.05;;;;;;;;;;4987299;28;20725;-71
2023/09/12 10:03:03;;;;;;;15.93;7.38;;;;;;;;;;4986731;28;20337;-72
2023/09/12 10:05:30;;;;;;;12.73;7.97;;;;;;;;;;4987977;28;20301;-74
2023/09/12 10:07:58;;;;;;;13.40;7.72;;;;;;;;;;4992948;28;20214;-76
2023/09/12 10:10:25;;;;;;;16.67;7.30;;;;;;;;;;4986481;28;20234;-75
2023/09/12 10:12:52;;;;;;;10.95;7.18;;;;;;;;;;4987562;28;20273;-74
2023/09/12 10:15:20;;;;;;;10.15;7.32;;;;;;;;;;4987034;28;20234;-77
2023/09/12 10:17:47;;;;;;;12.95;7.30;;;;;;;;;;4986617;28;20218;-76
2023/09/12 10:20:16;;;;;;;10.57;7.47;;;;;;;;;;4987098;28;20221;-77
2023/09/12 10:22:44;;;;;;;10.75;7.30;;;;;;;;;;4986592;28;20729;-77
2023/09/12 10:25:12;;;;;;;17.35;7.70;;;;;;;;;;4986645;28;20234;-75
2023/09/12 10:27:38;;;;;;;8.95;6.93;;;;;;;;;;4986531;28;20602;-76
2023/09/12 10:30:05;;;;;;;12.68;6.88;;;;;;;;;;4987083;28;20670;-76
2023/09/12 10:32:32;;;;;;;10.73;7.07;;;;;;;;;;4986803;28;20203;-76
2023/09/12 10:34:59;;;;;;;10.07;7.10;;;;;;;;;;4985766;28;20230;-76
2023/09/12 10:37:29;;;;;;;8.63;7.05;;;;;;;;;;4986230;28;20210;-76
2023/09/12 10:39:56;;;;;;;9.32;7.28;;;;;;;;;;4985806;28;20748;-75
2023/09/12 10:42:24;;;;;;;8.82;6.97;;;;;;;;;;4986363;28;20230;-75
2023/09/12 10:44:51;;;;;;;7.60;6.78;;;;;;;;;;4985840;28;20309;-75
2023/09/12 10:47:18;;;;;;;9.90;6.80;;;;;;;;;;4986122;28;20211;-74
2023/09/12 10:49:45;;;;;;;9.00;6.95;;;;;;;;;;4986594;28;20206;-74
2023/09/12 10:52:12;;;;;;;10.02;7.35;;;;;;;;;;4986316;28;20206;-74
2023/09/12 10:54:40;;;;;;;13.45;6.82;;;;;;;;;;4985505;28;20210;-75
2023/09/12 10:57:07;;;;;;;10.27;7.20;;;;;;;;;;4985644;28;20245;-74
2023/09/12 10:59:35;;;;;;;8.50;6.97;;;;;;;;;;4986217;28;20301;-74
2023/09/12 11:02:16;;;;;;;10.05;6.13;;;;;;;;;;4985541;28;20371;-74
2023/09/12 11:04:42;;;;;;;11.60;7.10;;;;;;;;;;4985286;28;20210;-73
2023/09/12 11:07:27;;;;;;;7.97;6.82;;;;;;;;;;4986127;28;20214;-73
2023/09/12 11:10:08;;;;;;;11.02;6.80;;;;;;;;;;4985517;28;20203;-75
2023/09/12 11:12:36;;;;;;;12.15;6.82;;;;;;;;;;4985174;28;20244;-75
2023/09/12 11:15:06;;;;;;;10.93;6.68;;;;;;;;;;4985947;28;20309;-74
2023/09/12 11:17:38;;;;;;;10.05;6.90;;;;;;;;;;4984906;28;20745;-73
2023/09/12 11:20:09;;;;;;;11.07;7.05;;;;;;;;;;4985559;28;20226;-75
2023/09/12 11:22:36;;;;;;;9.15;6.75;;;;;;;;;;4985053;28;20230;-75
2023/09/12 11:25:05;;;;;;;12.07;6.97;;;;;;;;;;4985657;28;20230;-75
2023/09/12 11:27:32;;;;;;;10.43;6.57;;;;;;;;;;4985416;28;20207;-75
2023/09/12 11:30:05;;;;;;;9.48;6.60;;;;;;;;;;4986138;28;20225;-76
2023/09/12 11:32:32;;;;;;;9.57;6.25;;;;;;;;;;4985539;28;20603;-76
2023/09/12 11:34:59;;;;;;;7.57;6.07;;;;;;;;;;4985122;28;20222;-75
2023/09/12 11:37:26;;;;;;;8.73;6.65;;;;;;;;;;4986025;28;20802;-76
2023/09/12 11:39:53;;;;;;;8.57;5.95;;;;;;;;;;4986082;28;20211;-75
2023/09/12 11:42:21;;;;;;;7.13;5.85;;;;;;;;;;4985267;28;20632;-75
2023/09/12 11:44:47;;;;;;;8.40;5.82;;;;;;;;;;4985309;28;20354;-75
2023/09/12 11:47:15;;;;;;;7.55;5.85;;;;;;;;;;4986108;28;20219;-76
2023/09/12 11:49:42;;;;;;;7.93;5.85;;;;;;;;;;4985463;28;20219;-74
2023/09/12 11:52:09;;;;;;;10.90;5.85;;;;;;;;;;4984766;28;20213;-74
2023/09/12 11:54:35;;;;;;;11.38;6.13;;;;;;;;;;4985090;28;20561;-74
2023/09/12 11:57:02;;;;;;;7.32;5.70;;;;;;;;;;4984848;28;20579;-74
2023/09/12 11:59:29;;;;;;;8.30;5.38;;;;;;;;;;4985248;28;20221;-75
2023/09/12 12:01:56;;;;;;;9.93;5.85;;;;;;;;;;4985388;28;20237;-74
2023/09/12 12:04:24;;;;;;;8.00;5.38;;;;;;;;;;4985310;28;20214;-74
2023/09/12 12:06:51;;;;;;;7.28;5.40;;;;;;;;;;4988548;28;20234;-73
2023/09/12 12:09:19;;;;;;;9.73;5.80;;;;;;;;;;4989688;28;20210;-74
2023/09/12 12:11:46;;;;;;;9.15;5.47;;;;;;;;;;4989369;28;21094;-74
2023/09/12 12:14:13;;;;;;;12.50;4.93;;;;;;;;;;4991186;28;20210;-74
2023/09/12 12:16:40;;;;;;;9.25;5.18;;;;;;;;;;4990632;28;20222;-75
2023/09/12 12:19:06;;;;;;;5.93;5.10;;;;;;;;;;4988973;28;20203;-75
2023/09/12 12:21:34;;;;;;;7.57;5.22;;;;;;;;;;4988883;28;20448;-74
2023/09/12 12:24:00;;;;;;;5.88;5.03;;;;;;;;;;4988940;28;20229;-74
2023/09/12 12:26:27;;;;;;;6.78;4.95;;;;;;;;;;4988049;28;20227;-75
2023/09/12 12:28:53;;;;;;;5.43;4.47;;;;;;;;;;4988785;28;20268;-74
2023/09/12 12:31:20;;;;;;;5.80;4.70;;;;;;;;;;4989036;28;20214;-75
2023/09/12 12:33:48;;;;;;;7.40;4.20;;;;;;;;;;4988758;28;20627;-74
2023/09/12 12:36:14;;;;;;;6.57;4.57;;;;;;;;;;4988344;28;20281;-77
2023/09/12 12:38:43;;;;;;;7.32;4.90;;;;;;;;;;4988549;28;20436;-76
2023/09/12 12:41:09;;;;;;;4.75;4.43;;;;;;;;;;4987400;28;20277;-75
2023/09/12 12:43:36;;;;;;;4.57;4.15;;;;;;;;;;4988750;28;20223;-75
2023/09/12 12:46:02;;;;;;;6.45;4.40;;;;;;;;;;4988551;28;20233;-75
2023/09/12 12:48:32;;;;;;;6.45;4.35;;;;;;;;;;4988374;28;20210;-75
2023/09/12 12:50:59;;;;;;;11.85;5.05;;;;;;;;;;4988684;28;20575;-75
2023/09/12 12:53:40;;;;;;;6.80;4.47;;;;;;;;;;4987772;28;20214;-75
2023/09/12 12:56:08;;;;;;;6.32;4.72;;;;;;;;;;4988750;28;20223;-75
2023/09/12 12:58:34;;;;;;;4.35;4.05;;;;;;;;;;4988394;28;20210;-75
2023/09/12 13:01:01;;;;;;;7.00;4.40;;;;;;;;;;4988046;28;20314;-75
2023/09/12 13:03:27;;;;;;;4.65;4.35;;;;;;;;;;4988241;28;20226;-75
2023/09/12 13:05:53;;;;;;;4.60;4.20;;;;;;;;;;4988250;28;20226;-75
2023/09/12 13:08:20;;;;;;;8.27;4.55;;;;;;;;;;4988192;28;20214;-75
2023/09/12 13:10:45;;;;;;;4.80;4.43;;;;;;;;;;4988165;28;20221;-75
2023/09/12 13:13:12;;;;;;;7.32;5.25;;;;;;;;;;4988655;28;20206;-75
2023/09/12 13:15:39;;;;;;;6.40;5.10;;;;;;;;;;4987582;28;20237;-75
2023/09/12 13:18:05;;;;;;;7.20;4.65;;;;;;;;;;4988028;28;20210;-75
2023/09/12 13:20:31;;;;;;;6.97;4.40;;;;;;;;;;4988135;28;20215;-75
2023/09/12 13:22:58;;;;;;;6.18;4.53;;;;;;;;;;4987750;28;20234;-74
2023/09/12 13:25:24;;;;;;;4.93;4.55;;;;;;;;;;4987293;28;20737;-74
2023/09/12 13:27:50;;;;;;;5.75;4.50;;;;;;;;;;4987615;28;20238;-74
2023/09/12 13:30:18;;;;;;;5.97;4.60;;;;;;;;;;4987734;28;20215;-74
2023/09/12 13:32:46;;;;;;;5.22;4.72;;;;;;;;;;4987593;28;20207;-74
2023/09/12 13:35:12;;;;;;;4.53;4.32;;;;;;;;;;4987405;28;20645;-74
2023/09/12 13:37:38;;;;;;;8.90;4.72;;;;;;;;;;4987830;28;20217;-74
2023/09/12 13:40:06;;;;;;;6.95;4.68;;;;;;;;;;4987484;28;20213;-74
2023/09/12 13:42:33;;;;;;;5.30;4.80;;;;;;;;;;4987713;28;20227;-74
2023/09/12 13:44:59;;;;;;;7.43;5.07;;;;;;;;;;4987667;28;20643;-74
2023/09/12 13:47:26;;;;;;;5.72;4.80;;;;;;;;;;4987175;28;20219;-73
2023/09/12 13:49:53;;;;;;;6.13;4.95;;;;;;;;;;4987202;28;20210;-73
2023/09/12 13:52:20;;;;;;;7.28;4.90;;;;;;;;;;4987250;28;20207;-73
2023/09/12 13:54:46;;;;;;;11.88;5.60;;;;;;;;;;4987315;28;20213;-74
2023/09/12 13:57:13;;;;;;;9.13;5.45;;;;;;;;;;4986652;28;20215;-74
2023/09/12 13:59:39;;;;;;;11.98;5.30;;;;;;;;;;4987466;28;20214;-74
2023/09/12 14:02:05;;;;;;;5.70;4.50;;;;;;;;;;4987399;28;20230;-74
2023/09/12 14:04:33;;;;;;;6.57;5.15;;;;;;;;;;4986165;28;20211;-74
2023/09/12 14:06:59;;;;;;;7.35;5.28;;;;;;;;;;4987912;28;20716;-74
2023/09/12 14:09:26;;;;;;;8.45;5.10;;;;;;;;;;4987237;28;20436;-75
2023/09/12 14:11:52;;;;;;;8.45;4.45;;;;;;;;;;4986935;28;20215;-74
2023/09/12 14:14:18;;;;;;;10.05;4.75;;;;;;;;;;4986760;28;20210;-74
2023/09/12 14:16:45;;;;;;;7.13;4.80;;;;;;;;;;4986567;28;20329;-75
2023/09/12 14:19:11;;;;;;;9.70;4.90;;;;;;;;;;4986498;28;20221;-75
2023/09/12 14:21:39;;;;;;;13.10;4.90;;;;;;;;;;4986903;28;20403;-75
2023/09/12 14:24:06;;;;;;;6.30;4.30;;;;;;;;;;4984611;28;20743;-74
2023/09/12 14:26:32;;;;;;;10.80;5.10;;;;;;;;;;4989309;28;20769;-68
2023/09/12 14:28:58;;;;;;;7.85;4.72;;;;;;;;;;4974733;28;20211;-68
2023/09/12 14:31:25;;;;;;;7.10;4.82;;;;;;;;;;4990048;28;20209;-69